Time;durP1;ratioP1;P1;durP2;ratioP2;P2;SDS_P1;SDS_P2;PMS_P1;PMS_P2;Temp;Humidity;BMP_temperature;BMP_pressure;BME280_temperature;BME280_humidity;BME280_pressure;Samples;Min_cycle;Max_cycle;Signal;HPM_P1;HPM_P2
2023/06/27 00:00:48;;;;;;;8.13;2.20;;;13.60;99.90;;;;;;4982732;28;20045;-70
2023/06/27 00:03:14;;;;;;;9.25;2.15;;;13.70;99.90;;;;;;5017026;28;20062;-65
2023/06/27 00:05:39;;;;;;;10.20;2.20;;;13.60;99.90;;;;;;4999390;28;20133;-65
2023/06/27 00:08:06;;;;;;;8.50;2.33;;;13.60;99.90;;;;;;4999051;28;20048;-66
2023/06/27 00:10:32;;;;;;;6.88;1.95;;;13.60;99.90;;;;;;4982899;28;20149;-64
2023/06/27 00:12:58;;;;;;;4.20;1.55;;;13.60;99.90;;;;;;4999731;28;20057;-65
2023/06/27 00:15:26;;;;;;;6.05;1.92;;;13.60;99.90;;;;;;5016252;28;20367;-66
2023/06/27 00:17:53;;;;;;;7.93;2.50;;;13.60;99.90;;;;;;4998834;28;20046;-66
2023/06/27 00:20:19;;;;;;;8.88;2.00;;;13.60;99.90;;;;;;4999523;28;20484;-65
2023/06/27 00:22:48;;;;;;;5.45;2.00;;;13.50;99.90;;;;;;5016177;28;20046;-65
2023/06/27 00:25:13;;;;;;;10.68;2.28;;;13.60;99.90;;;;;;4982468;28;20041;-66
2023/06/27 00:27:39;;;;;;;7.85;2.25;;;13.50;99.90;;;;;;4982425;28;20170;-65
2023/06/27 00:30:06;;;;;;;8.77;2.33;;;13.50;99.90;;;;;;4998414;28;20132;-65
2023/06/27 00:32:32;;;;;;;10.77;2.28;;;13.50;99.90;;;;;;4982471;28;20133;-65
2023/06/27 00:34:58;;;;;;;8.05;2.40;;;13.50;99.90;;;;;;4998282;28;20136;-65
2023/06/27 00:37:23;;;;;;;7.20;2.42;;;13.40;99.90;;;;;;5015802;28;20045;-66
2023/06/27 00:39:49;;;;;;;7.15;2.88;;;13.50;99.90;;;;;;5015781;28;20045;-65
2023/06/27 00:42:15;;;;;;;6.47;2.22;;;13.50;99.90;;;;;;5015617;28;20103;-65
2023/06/27 00:44:40;;;;;;;8.70;2.35;;;13.50;99.90;;;;;;4982054;28;20129;-66
2023/06/27 00:47:06;;;;;;;7.10;2.50;;;13.40;99.90;;;;;;4997918;28;20050;-65
2023/06/27 00:49:33;;;;;;;5.72;2.33;;;13.40;99.90;;;;;;5015912;28;20053;-65
2023/06/27 00:51:59;;;;;;;8.83;2.10;;;13.40;99.90;;;;;;4998464;28;20042;-65
2023/06/27 00:54:26;;;;;;;10.30;2.63;;;13.40;99.90;;;;;;4982970;28;20053;-65
2023/06/27 00:56:55;;;;;;;6.57;2.40;;;13.40;99.90;;;;;;5015922;28;20053;-66
2023/06/27 00:59:21;;;;;;;10.63;2.38;;;13.40;99.90;;;;;;4997894;28;20057;-66
2023/06/27 01:01:48;;;;;;;6.07;2.70;;;13.40;99.90;;;;;;4997470;28;20116;-65
2023/06/27 01:04:14;;;;;;;6.95;2.22;;;13.40;99.90;;;;;;4997858;28;20065;-65
2023/06/27 01:06:58;;;;;;;8.45;2.85;;;13.40;99.90;;;;;;5015381;28;20046;-66
2023/06/27 01:09:51;;;;;;;6.53;2.38;;;13.40;99.90;;;;;;5015489;28;20061;-66
2023/06/27 01:12:32;;;;;;;7.38;2.50;;;13.30;99.90;;;;;;5012233;28;20094;-65
2023/06/27 01:14:59;;;;;;;8.00;2.90;;;13.30;99.90;;;;;;5014977;28;20076;-68
2023/06/27 01:17:27;;;;;;;9.85;2.63;;;13.20;99.90;;;;;;4997856;28;20473;-66
2023/06/27 01:19:54;;;;;;;9.95;2.67;;;13.10;99.90;;;;;;5015770;28;20069;-67
2023/06/27 01:22:36;;;;;;;8.63;2.90;;;13.10;99.90;;;;;;5014899;28;20056;-64
2023/06/27 01:25:07;;;;;;;8.40;3.03;;;13.10;99.90;;;;;;5014873;28;20046;-66
2023/06/27 01:27:33;;;;;;;7.85;3.25;;;13.10;99.90;;;;;;4997836;28;20050;-65
2023/06/27 01:29:59;;;;;;;8.57;3.20;;;13.10;99.90;;;;;;4997644;28;20049;-65
2023/06/27 01:32:47;;;;;;;8.77;3.30;;;13.10;99.90;;;;;;4997257;28;20042;-66
2023/06/27 01:35:27;;;;;;;9.65;2.83;;;13.10;99.90;;;;;;5014418;28;20128;-66
2023/06/27 01:38:00;;;;;;;8.90;3.08;;;13.10;99.90;;;;;;4997937;28;20173;-66
2023/06/27 01:40:29;;;;;;;8.18;2.70;;;13.10;99.90;;;;;;5014670;28;20049;-65
2023/06/27 01:42:58;;;;;;;10.23;3.30;;;13.10;99.90;;;;;;4997626;28;20453;-66
2023/06/27 01:45:24;;;;;;;10.10;3.03;;;13.00;99.90;;;;;;4980942;28;20108;-64
2023/06/27 01:47:51;;;;;;;7.37;3.30;;;13.00;99.90;;;;;;4997080;28;20050;-66
2023/06/27 01:50:17;;;;;;;;;;;13.00;99.90;;;;;;4980864;28;20050;-65
2023/06/27 01:52:43;;;;;;;6.97;3.50;;;13.00;99.90;;;;;;4997370;28;19929;-65
2023/06/27 01:55:09;;;;;;;9.68;2.88;;;12.90;99.90;;;;;;4997681;28;20049;-66
2023/06/27 01:57:35;;;;;;;11.43;3.08;;;13.00;99.90;;;;;;4980854;28;20046;-66
2023/06/27 02:00:01;;;;;;;7.38;3.25;;;12.90;99.90;;;;;;4997170;28;20045;-66
2023/06/27 02:02:27;;;;;;;11.73;4.15;;;13.00;99.90;;;;;;4996074;28;20061;-65
2023/06/27 02:04:53;;;;;;;10.10;3.97;;;13.00;99.90;;;;;;5014088;28;20050;-65
2023/06/27 02:07:19;;;;;;;8.82;3.30;;;13.00;99.90;;;;;;5014092;28;20498;-66
2023/06/27 02:09:44;;;;;;;10.10;3.75;;;12.90;99.90;;;;;;5013547;28;20193;-65
2023/06/27 02:12:11;;;;;;;7.63;3.53;;;12.90;99.90;;;;;;5013617;28;20124;-66
2023/06/27 02:14:38;;;;;;;8.88;3.60;;;12.90;99.90;;;;;;5014178;28;20045;-66
2023/06/27 02:17:05;;;;;;;9.38;4.00;;;12.90;99.90;;;;;;5014091;28;20133;-65
2023/06/27 02:19:30;;;;;;;12.88;4.25;;;12.90;99.90;;;;;;4981288;28;20111;-65
2023/06/27 02:21:56;;;;;;;7.00;3.65;;;12.90;99.90;;;;;;4996169;28;20046;-65
2023/06/27 02:24:22;;;;;;;8.02;3.80;;;12.80;99.90;;;;;;5013939;28;20053;-66
2023/06/27 02:26:48;;;;;;;10.18;4.30;;;12.80;99.90;;;;;;5013576;28;20561;-67
2023/06/27 02:29:14;;;;;;;8.60;3.78;;;12.80;99.90;;;;;;5013803;28;20092;-64
2023/06/27 02:31:39;;;;;;;13.35;4.38;;;12.80;99.90;;;;;;4995968;28;20068;-65
2023/06/27 02:34:05;;;;;;;10.82;3.70;;;12.80;99.90;;;;;;5013777;28;20049;-65
2023/06/27 02:36:31;;;;;;;9.48;4.55;;;12.80;99.90;;;;;;4996462;28;20389;-66
2023/06/27 02:39:02;;;;;;;11.48;4.05;;;12.80;99.90;;;;;;5013770;28;20056;-66
2023/06/27 02:41:28;;;;;;;10.10;4.43;;;12.80;99.90;;;;;;4996147;28;20096;-65
2023/06/27 02:43:53;;;;;;;9.75;4.35;;;12.70;99.90;;;;;;4996286;28;20050;-66
2023/06/27 02:46:19;;;;;;;11.70;4.50;;;12.70;99.90;;;;;;4996225;28;20045;-66
2023/06/27 02:48:45;;;;;;;10.40;4.25;;;12.70;99.90;;;;;;5013708;28;20133;-65
2023/06/27 02:51:11;;;;;;;11.35;4.03;;;12.80;99.90;;;;;;4996643;28;20061;-66
2023/06/27 02:53:37;;;;;;;9.32;3.78;;;12.60;99.90;;;;;;5014167;28;20085;-66
2023/06/27 02:56:05;;;;;;;9.15;4.57;;;12.60;99.90;;;;;;5013194;28;20049;-65
2023/06/27 02:58:31;;;;;;;11.52;4.47;;;12.60;99.90;;;;;;4996092;28;20046;-66
2023/06/27 03:00:59;;;;;;;9.32;4.40;;;12.50;99.90;;;;;;4996205;28;20129;-66
2023/06/27 03:03:25;;;;;;;11.10;4.70;;;12.40;99.90;;;;;;5013345;28;20053;-66
2023/06/27 03:05:51;;;;;;;9.77;4.72;;;12.50;99.90;;;;;;4996888;28;20044;-65
2023/06/27 03:08:17;;;;;;;9.20;4.85;;;12.50;99.90;;;;;;5013350;28;20429;-66
2023/06/27 03:10:43;;;;;;;8.82;4.43;;;12.50;99.90;;;;;;5013360;28;20042;-65
2023/06/27 03:13:08;;;;;;;10.77;4.70;;;12.40;99.90;;;;;;4980084;28;20045;-65
2023/06/27 03:15:34;;;;;;;11.40;4.97;;;12.40;99.90;;;;;;4996109;28;20116;-66
2023/06/27 03:18:01;;;;;;;11.55;5.03;;;12.50;99.90;;;;;;5013394;28;20614;-65
2023/06/27 03:20:26;;;;;;;10.00;5.10;;;12.50;99.90;;;;;;4997862;28;20056;-66
2023/06/27 03:22:52;;;;;;;11.45;4.72;;;12.50;99.90;;;;;;4967643;28;20054;-65
2023/06/27 03:25:18;;;;;;;10.32;5.10;;;12.50;99.90;;;;;;4999594;28;20383;-65
2023/06/27 03:27:44;;;;;;;12.77;4.88;;;12.50;99.90;;;;;;5017174;28;20089;-66
2023/06/27 03:30:10;;;;;;;10.77;4.82;;;12.60;99.90;;;;;;4999445;28;20050;-65
2023/06/27 03:32:36;;;;;;;11.80;4.93;;;12.60;99.90;;;;;;5017049;28;20046;-65
2023/06/27 03:35:02;;;;;;;9.02;5.03;;;12.60;99.90;;;;;;4999910;28;20485;-65
2023/06/27 03:37:28;;;;;;;11.85;4.90;;;12.70;99.90;;;;;;4983698;28;20056;-65
2023/06/27 03:39:56;;;;;;;11.43;4.95;;;12.70;99.90;;;;;;4999419;28;20049;-66
2023/06/27 03:42:21;;;;;;;12.57;4.80;;;12.80;99.90;;;;;;5016847;28;20507;-66
2023/06/27 03:44:47;;;;;;;10.90;5.07;;;12.80;99.90;;;;;;5017124;28;20145;-65
2023/06/27 03:47:12;;;;;;;9.13;5.07;;;12.90;99.90;;;;;;5016776;28;20046;-65
2023/06/27 03:49:38;;;;;;;19.77;5.57;;;13.10;99.90;;;;;;4982954;28;20050;-66
2023/06/27 03:52:04;;;;;;;12.10;5.40;;;13.20;99.90;;;;;;5016641;28;20081;-66
2023/06/27 03:54:30;;;;;;;12.82;5.78;;;13.30;99.90;;;;;;4982956;28;20045;-66
2023/06/27 03:56:55;;;;;;;10.70;5.60;;;13.40;99.90;;;;;;5016557;28;20184;-65
2023/06/27 03:59:21;;;;;;;10.15;5.30;;;13.50;99.90;;;;;;4999142;28;20082;-67
2023/06/27 04:01:47;;;;;;;10.00;4.88;;;13.60;99.90;;;;;;4998782;28;20068;-66
2023/06/27 04:04:13;;;;;;;10.85;5.18;;;13.60;99.90;;;;;;4999301;28;20588;-65
2023/06/27 04:06:39;;;;;;;11.23;5.65;;;13.60;99.90;;;;;;5016403;28;20465;-65
2023/06/27 04:09:05;;;;;;;14.90;5.25;;;13.60;99.90;;;;;;4999873;28;20046;-66
2023/06/27 04:11:31;;;;;;;14.38;6.00;;;13.60;99.90;;;;;;5016536;28;20081;-65
2023/06/27 04:13:59;;;;;;;12.68;5.75;;;13.60;99.90;;;;;;5016322;28;20081;-66
2023/06/27 04:16:28;;;;;;;16.15;5.75;;;13.60;99.90;;;;;;4998722;28;20053;-65
2023/06/27 04:18:54;;;;;;;12.85;5.60;;;13.70;99.90;;;;;;4999039;28;20125;-65
2023/06/27 04:21:21;;;;;;;12.95;5.93;;;13.70;99.90;;;;;;5016237;28;20126;-65
2023/06/27 04:23:47;;;;;;;13.20;5.97;;;13.70;99.90;;;;;;4983437;28;20085;-65
2023/06/27 04:26:15;;;;;;;13.68;5.63;;;13.80;99.90;;;;;;4998837;28;20532;-65
2023/06/27 04:28:50;;;;;;;10.32;5.68;;;13.80;99.90;;;;;;5016570;28;20107;-65
2023/06/27 04:31:16;;;;;;;14.20;6.25;;;13.90;99.90;;;;;;5015364;28;20050;-65
2023/06/27 04:33:41;;;;;;;10.43;5.82;;;13.90;99.90;;;;;;5015865;28;20556;-65
2023/06/27 04:36:08;;;;;;;12.15;5.57;;;14.00;99.90;;;;;;4999447;28;20057;-65
2023/06/27 04:38:38;;;;;;;15.73;6.35;;;14.00;99.90;;;;;;5016359;28;20367;-66
2023/06/27 04:41:05;;;;;;;14.95;6.32;;;14.10;99.90;;;;;;4998828;28;20093;-65
2023/06/27 04:43:32;;;;;;;13.75;6.35;;;14.10;99.90;;;;;;4982591;28;20038;-65
2023/06/27 04:46:01;;;;;;;16.02;6.40;;;14.20;99.90;;;;;;5016510;28;20100;-65
2023/06/27 04:48:27;;;;;;;11.43;6.45;;;14.30;99.90;;;;;;4998137;28;20046;-64
2023/06/27 04:50:54;;;;;;;14.23;6.70;;;14.30;99.90;;;;;;5015722;28;20073;-65
2023/06/27 04:53:21;;;;;;;12.88;6.60;;;14.40;99.90;;;;;;5015603;28;20050;-66
2023/06/27 04:55:50;;;;;;;14.18;5.82;;;14.50;99.90;;;;;;5015180;28;20566;-65
2023/06/27 04:58:17;;;;;;;12.77;6.15;;;14.60;99.90;;;;;;4982324;28;20042;-66
2023/06/27 05:00:44;;;;;;;15.05;6.32;;;14.70;99.90;;;;;;4998289;28;20064;-67
2023/06/27 05:03:10;;;;;;;15.15;6.47;;;14.80;99.90;;;;;;4997730;28;20061;-66
2023/06/27 05:05:36;;;;;;;15.80;6.67;;;14.80;99.90;;;;;;4998465;28;20054;-65
2023/06/27 05:08:03;;;;;;;14.15;6.43;;;14.80;99.90;;;;;;4998837;28;20064;-64
2023/06/27 05:10:29;;;;;;;15.18;6.57;;;14.90;99.90;;;;;;5014781;28;20490;-66
2023/06/27 05:12:56;;;;;;;16.23;6.75;;;15.00;99.90;;;;;;4997829;28;20068;-65
2023/06/27 05:15:22;;;;;;;14.98;6.07;;;15.10;99.90;;;;;;5015189;28;20129;-67
2023/06/27 05:17:52;;;;;;;15.40;6.68;;;15.10;99.90;;;;;;4998170;28;20134;-66
2023/06/27 05:20:18;;;;;;;12.52;6.03;;;15.20;99.90;;;;;;5014953;28;20081;-65
2023/06/27 05:22:44;;;;;;;13.60;5.88;;;15.30;99.90;;;;;;5014867;28;20046;-65
2023/06/27 05:25:10;;;;;;;13.95;5.82;;;15.40;99.90;;;;;;5014885;28;20048;-65
2023/06/27 05:27:35;;;;;;;15.30;6.28;;;15.50;99.90;;;;;;4997518;28;20038;-65
2023/06/27 05:30:01;;;;;;;16.42;6.35;;;15.50;99.90;;;;;;5014841;28;20108;-66
2023/06/27 05:32:27;;;;;;;12.10;6.25;;;15.70;99.90;;;;;;5014735;28;20066;-65
2023/06/27 05:34:54;;;;;;;13.90;5.85;;;15.80;99.90;;;;;;4981148;28;20045;-66
2023/06/27 05:37:19;;;;;;;10.10;5.20;;;15.80;99.90;;;;;;4981300;28;20049;-66
2023/06/27 05:39:45;;;;;;;11.35;5.53;;;15.90;99.90;;;;;;5014975;28;20121;-66
2023/06/27 05:42:11;;;;;;;15.73;5.50;;;16.00;99.90;;;;;;4997730;28;20454;-66
2023/06/27 05:44:36;;;;;;;13.60;5.10;;;16.10;99.90;;;;;;5013693;28;20125;-66
2023/06/27 05:47:03;;;;;;;12.70;5.07;;;16.10;99.90;;;;;;5014939;28;20046;-65
2023/06/27 05:49:29;;;;;;;11.73;4.88;;;16.20;99.90;;;;;;4997307;28;20099;-65
2023/06/27 05:51:54;;;;;;;11.18;4.30;;;16.30;99.90;;;;;;4996909;28;20046;-65
2023/06/27 05:54:20;;;;;;;13.60;4.45;;;16.40;99.90;;;;;;4997432;28;20046;-66
2023/06/27 05:56:46;;;;;;;14.53;4.60;;;16.50;99.90;;;;;;4997018;28;20477;-66
2023/06/27 05:59:12;;;;;;;13.73;3.55;;;16.60;99.90;;;;;;4997589;28;20046;-65
2023/06/27 06:01:37;;;;;;;10.47;4.17;;;16.60;99.90;;;;;;4996673;28;20085;-65
2023/06/27 06:04:06;;;;;;;8.70;3.90;;;16.70;99.90;;;;;;4997334;28;20061;-66
2023/06/27 06:06:38;;;;;;;8.55;3.50;;;16.80;99.90;;;;;;5014767;28;20057;-65
2023/06/27 06:09:05;;;;;;;12.43;3.20;;;16.80;99.90;;;;;;5014539;28;20050;-66
2023/06/27 06:11:33;;;;;;;9.85;3.33;;;16.90;99.90;;;;;;4996706;28;20049;-65
2023/06/27 06:14:02;;;;;;;8.63;3.10;;;17.00;99.90;;;;;;4980479;28;20042;-66
2023/06/27 06:16:33;;;;;;;10.43;3.25;;;17.20;99.90;;;;;;5013763;28;20417;-66
2023/06/27 06:18:59;;;;;;;11.68;3.10;;;17.30;99.90;;;;;;4997035;28;20429;-65
2023/06/27 06:21:26;;;;;;;8.52;2.38;;;17.40;99.90;;;;;;4997437;28;20050;-65
2023/06/27 06:23:53;;;;;;;7.93;2.67;;;17.50;99.90;;;;;;5014210;28;20389;-65
2023/06/27 06:26:19;;;;;;;6.53;2.40;;;17.70;99.90;;;;;;5014501;28;20061;-67
2023/06/27 06:28:45;;;;;;;11.47;2.20;;;17.80;99.90;;;;;;5013957;28;20050;-65
2023/06/27 06:31:11;;;;;;;6.65;2.08;;;18.00;99.90;;;;;;5013843;28;20045;-65
2023/06/27 06:33:38;;;;;;;11.30;1.55;;;18.10;99.90;;;;;;4996318;28;20046;-69
2023/06/27 06:36:05;;;;;;;5.30;1.20;;;18.30;99.90;;;;;;5014036;28;20045;-66
2023/06/27 06:38:31;;;;;;;6.13;1.00;;;18.50;99.90;;;;;;5013688;28;20054;-65
2023/06/27 06:40:56;;;;;;;4.70;0.77;;;18.70;99.90;;;;;;4996214;28;20394;-66
2023/06/27 06:43:25;;;;;;;6.73;0.77;;;18.90;99.90;;;;;;5013462;28;20514;-64
2023/06/27 06:45:54;;;;;;;6.57;0.60;;;19.10;99.90;;;;;;4996283;28;20124;-65
2023/06/27 06:48:19;;;;;;;3.33;0.50;;;19.40;99.90;;;;;;4980119;28;20103;-65
2023/06/27 06:50:46;;;;;;;4.83;0.60;;;19.50;99.90;;;;;;4979971;28;20042;-67
2023/06/27 06:53:12;;;;;;;5.32;0.50;;;19.70;99.90;;;;;;5013628;28;20056;-66
2023/06/27 06:55:37;;;;;;;4.63;0.53;;;20.00;99.90;;;;;;5017995;28;20049;-66
2023/06/27 06:58:04;;;;;;;3.80;0.50;;;20.10;99.90;;;;;;5002251;28;20546;-66
2023/06/27 07:00:30;;;;;;;5.80;0.60;;;20.30;99.90;;;;;;5020247;28;20045;-65
2023/06/27 07:02:56;;;;;;;3.65;0.38;;;20.30;99.90;;;;;;4986073;28;20089;-65
2023/06/27 07:05:22;;;;;;;3.95;0.40;;;20.20;99.90;;;;;;5002482;28;20150;-64
2023/06/27 07:07:48;;;;;;;4.90;0.40;;;20.30;99.90;;;;;;4986390;28;20132;-66
2023/06/27 07:10:14;;;;;;;2.77;0.50;;;20.40;99.90;;;;;;5002831;28;20082;-66
2023/06/27 07:12:40;;;;;;;5.20;0.60;;;20.50;99.90;;;;;;5002759;28;20382;-68
2023/06/27 07:15:07;;;;;;;4.45;0.47;;;20.60;99.90;;;;;;5002411;28;20096;-67
2023/06/27 07:17:32;;;;;;;5.03;0.40;;;20.60;99.90;;;;;;5002580;28;20084;-66
2023/06/27 07:19:59;;;;;;;7.77;0.60;;;20.70;99.90;;;;;;5002938;28;20073;-64
2023/06/27 07:22:25;;;;;;;3.75;0.45;;;20.90;99.90;;;;;;4987176;28;20042;-66
2023/06/27 07:24:51;;;;;;;3.65;0.45;;;20.90;99.70;;;;;;5002299;28;20478;-66
2023/06/27 07:27:16;;;;;;;3.93;0.40;;;21.00;99.90;;;;;;5019921;28;20042;-64
2023/06/27 07:29:42;;;;;;;2.77;0.50;;;21.10;99.90;;;;;;5020386;28;20045;-66
2023/06/27 07:32:10;;;;;;;5.17;0.50;;;21.30;99.90;;;;;;4986029;28;20042;-66
2023/06/27 07:34:36;;;;;;;3.05;0.40;;;21.20;98.30;;;;;;5020323;28;20050;-66
2023/06/27 07:37:02;;;;;;;4.20;0.60;;;21.20;97.80;;;;;;5002287;28;20046;-65
2023/06/27 07:39:28;;;;;;;;;;;21.10;98.20;;;;;;5002814;28;20054;-65
2023/06/27 07:41:54;;;;;;;5.18;0.47;;;21.10;99.30;;;;;;5019555;28;19927;-65
2023/06/27 07:44:20;;;;;;;3.75;0.40;;;21.30;99.70;;;;;;5002466;28;20394;-65
2023/06/27 07:46:46;;;;;;;4.67;0.50;;;21.30;99.30;;;;;;4985681;28;20037;-66
2023/06/27 07:49:12;;;;;;;4.23;0.40;;;21.30;99.30;;;;;;5020397;28;20049;-64
2023/06/27 07:51:37;;;;;;;5.40;0.40;;;21.30;99.50;;;;;;5002008;28;20092;-65
2023/06/27 07:54:03;;;;;;;4.90;0.50;;;21.20;98.80;;;;;;4986015;28;20061;-66
2023/06/27 07:56:29;;;;;;;3.63;0.30;;;21.20;99.10;;;;;;4986225;28;20108;-67
2023/06/27 07:58:55;;;;;;;7.40;0.60;;;21.20;98.80;;;;;;5020146;28;20057;-65
2023/06/27 08:01:21;;;;;;;5.10;0.40;;;21.30;97.40;;;;;;5001820;28;20049;-65
2023/06/27 08:03:47;;;;;;;3.63;0.30;;;21.30;97.10;;;;;;4986575;28;20053;-66
2023/06/27 08:06:14;;;;;;;4.50;0.50;;;21.20;96.40;;;;;;5001208;28;20108;-64
2023/06/27 08:08:40;;;;;;;5.35;0.50;;;21.30;96.80;;;;;;5016851;28;20048;-65
2023/06/27 08:11:06;;;;;;;4.63;0.40;;;21.40;96.80;;;;;;4998863;28;20050;-66
2023/06/27 08:13:31;;;;;;;3.10;0.40;;;21.50;96.70;;;;;;5016492;28;20054;-66
2023/06/27 08:15:57;;;;;;;3.43;0.30;;;21.50;97.00;;;;;;4999086;28;20062;-66
2023/06/27 08:18:23;;;;;;;4.03;0.40;;;21.60;97.20;;;;;;5016338;28;20042;-65
2023/06/27 08:20:49;;;;;;;4.68;0.40;;;21.40;96.60;;;;;;4982775;28;20042;-65
2023/06/27 08:23:14;;;;;;;2.73;0.40;;;21.40;95.50;;;;;;5016215;28;20046;-65
2023/06/27 08:25:40;;;;;;;7.90;0.50;;;21.50;96.30;;;;;;4982963;28;20046;-66
2023/06/27 08:28:06;;;;;;;3.57;0.47;;;21.70;96.40;;;;;;4998848;28;20069;-66
2023/06/27 08:30:32;;;;;;;2.83;0.40;;;21.80;94.70;;;;;;4998788;28;20123;-66
2023/06/27 08:32:57;;;;;;;4.25;0.40;;;21.60;94.80;;;;;;5015935;28;20050;-66
2023/06/27 08:35:24;;;;;;;4.70;0.40;;;21.20;94.10;;;;;;4999536;28;20112;-67
2023/06/27 08:37:49;;;;;;;4.30;0.30;;;21.40;95.10;;;;;;4998475;28;20104;-68
2023/06/27 08:40:23;;;;;;;5.37;0.50;;;21.60;94.80;;;;;;4982672;28;20050;-65
2023/06/27 08:42:49;;;;;;;4.43;0.40;;;21.80;95.10;;;;;;5016639;28;20390;-66
2023/06/27 08:45:14;;;;;;;7.43;0.47;;;22.10;95.30;;;;;;4998321;28;20050;-66
2023/06/27 08:47:44;;;;;;;2.73;0.30;;;22.30;95.20;;;;;;4998407;28;20081;-65
2023/06/27 08:50:13;;;;;;;3.53;0.30;;;22.40;94.50;;;;;;4998199;28;20053;-67
2023/06/27 08:52:54;;;;;;;3.95;0.35;;;22.50;94.30;;;;;;5015466;28;20052;-65
2023/06/27 08:55:44;;;;;;;2.55;0.30;;;22.60;94.40;;;;;;4982633;28;20129;-65
2023/06/27 08:58:15;;;;;;;5.68;0.40;;;22.50;93.80;;;;;;4999019;28;20046;-65
2023/06/27 09:00:44;;;;;;;4.28;0.40;;;22.40;93.50;;;;;;4998308;28;20081;-66
2023/06/27 09:03:10;;;;;;;5.15;0.40;;;22.50;93.90;;;;;;5015309;28;20068;-66
2023/06/27 09:05:37;;;;;;;2.95;0.30;;;22.20;93.30;;;;;;4981850;28;20055;-68
2023/06/27 09:08:04;;;;;;;4.93;0.43;;;22.40;93.10;;;;;;5015319;28;20049;-66
2023/06/27 09:10:30;;;;;;;2.55;0.50;;;22.50;93.20;;;;;;4982097;28;20383;-69
2023/06/27 09:12:56;;;;;;;5.80;0.50;;;22.50;93.00;;;;;;4998420;28;20060;-67
2023/06/27 09:15:22;;;;;;;5.03;0.30;;;22.60;92.50;;;;;;5014946;28;20056;-65
2023/06/27 09:17:48;;;;;;;2.43;0.30;;;22.50;92.80;;;;;;5014653;28;20053;-65
2023/06/27 09:20:18;;;;;;;4.80;0.40;;;22.60;92.10;;;;;;5015833;28;20057;-66
2023/06/27 09:22:45;;;;;;;6.00;0.40;;;22.70;91.60;;;;;;5015830;28;20042;-66
2023/06/27 09:25:14;;;;;;;2.65;0.40;;;22.70;92.00;;;;;;4997748;28;20394;-64
2023/06/27 09:27:40;;;;;;;5.00;0.50;;;22.80;92.50;;;;;;4997778;28;20050;-65
2023/06/27 09:30:08;;;;;;;3.08;0.40;;;22.90;92.70;;;;;;4997265;28;20490;-66
2023/06/27 09:32:50;;;;;;;4.43;0.30;;;22.90;92.70;;;;;;5014717;28;20045;-65
2023/06/27 09:35:16;;;;;;;6.90;0.43;;;22.90;92.50;;;;;;4997415;28;20508;-66
2023/06/27 09:37:42;;;;;;;3.08;0.55;;;22.80;91.90;;;;;;4998061;28;20050;-67
2023/06/27 09:40:18;;;;;;;2.67;0.30;;;22.90;91.50;;;;;;4997392;28;20044;-66
2023/06/27 09:42:54;;;;;;;2.35;0.30;;;22.90;90.20;;;;;;4998293;28;20045;-65
2023/06/27 09:45:21;;;;;;;2.83;0.30;;;22.90;90.70;;;;;;4981611;28;20042;-67
2023/06/27 09:47:48;;;;;;;4.85;0.32;;;23.00;90.40;;;;;;5014692;28;20049;-65
2023/06/27 09:50:15;;;;;;;3.47;0.30;;;23.10;90.70;;;;;;4996971;28;20104;-66
2023/06/27 09:52:47;;;;;;;5.50;0.40;;;23.00;90.60;;;;;;5014485;28;20053;-66
2023/06/27 09:55:18;;;;;;;5.93;0.40;;;23.20;90.90;;;;;;5014447;28;20096;-67
2023/06/27 09:57:46;;;;;;;3.50;0.30;;;23.20;90.60;;;;;;4997134;28;20064;-65
2023/06/27 10:00:13;;;;;;;6.35;0.57;;;22.70;90.20;;;;;;5014310;28;20041;-66
2023/06/27 10:02:39;;;;;;;6.32;0.47;;;22.80;89.60;;;;;;5014557;28;20057;-66
2023/06/27 10:05:05;;;;;;;3.87;0.40;;;22.60;90.10;;;;;;5014325;28;20042;-66
2023/06/27 10:07:31;;;;;;;4.33;0.30;;;22.60;90.30;;;;;;4996966;28;20122;-65
2023/06/27 10:09:57;;;;;;;3.88;0.40;;;22.70;88.20;;;;;;5014190;28;20050;-66
2023/06/27 10:12:24;;;;;;;6.13;0.50;;;22.50;89.20;;;;;;5014142;28;20049;-66
2023/06/27 10:14:50;;;;;;;3.53;0.30;;;22.80;90.40;;;;;;5014200;28;20386;-65
2023/06/27 10:17:18;;;;;;;4.35;0.40;;;23.10;90.70;;;;;;5013784;28;20553;-66
2023/06/27 10:19:45;;;;;;;7.18;0.77;;;23.20;90.90;;;;;;5014136;28;20085;-65
2023/06/27 10:22:17;;;;;;;3.80;0.40;;;23.20;90.60;;;;;;4996689;28;20103;-65
2023/06/27 10:24:45;;;;;;;7.22;0.40;;;23.20;90.90;;;;;;5014045;28;20046;-65
2023/06/27 10:27:15;;;;;;;9.15;0.40;;;23.20;89.00;;;;;;5013676;28;20490;-66
2023/06/27 10:29:41;;;;;;;5.60;0.50;;;23.20;90.00;;;;;;4996082;28;20092;-66
2023/06/27 10:32:14;;;;;;;8.43;0.65;;;23.30;88.10;;;;;;4997026;28;20060;-66
2023/06/27 10:34:42;;;;;;;6.03;0.40;;;23.40;90.00;;;;;;5013808;28;20072;-66
2023/06/27 10:37:24;;;;;;;2.55;0.40;;;23.50;88.00;;;;;;5013781;28;20050;-67
2023/06/27 10:40:07;;;;;;;6.90;0.60;;;23.70;89.70;;;;;;4996630;28;20484;-66
2023/06/27 10:42:32;;;;;;;5.63;0.35;;;23.60;84.90;;;;;;4996799;28;20382;-66
2023/06/27 10:45:09;;;;;;;2.80;0.30;;;23.80;86.20;;;;;;4996100;28;20045;-65
2023/06/27 10:47:42;;;;;;;2.08;0.57;;;23.70;86.70;;;;;;5013860;28;20042;-66
2023/06/27 10:50:19;;;;;;;4.38;0.30;;;23.80;86.40;;;;;;5014320;28;20453;-66
2023/06/27 10:53:06;;;;;;;5.43;0.43;;;24.00;85.20;;;;;;4980128;28;20046;-66
2023/06/27 10:55:33;;;;;;;4.47;0.40;;;23.80;84.40;;;;;;4996504;28;20546;-66
2023/06/27 10:58:02;;;;;;;;;;;24.00;85.30;;;;;;5014860;28;20065;-65
2023/06/27 11:00:34;;;;;;;5.07;0.40;;;24.20;86.10;;;;;;4996207;28;19968;-65
2023/06/27 11:03:03;;;;;;;3.67;0.40;;;24.20;85.80;;;;;;4995855;28;20060;-67
2023/06/27 11:05:50;;;;;;;4.70;0.40;;;24.20;85.40;;;;;;4996212;28;20461;-66
2023/06/27 11:08:18;;;;;;;3.78;0.40;;;23.90;85.30;;;;;;4980802;28;20041;-66
2023/06/27 11:10:59;;;;;;;2.88;0.30;;;23.60;84.20;;;;;;5013461;28;20132;-66
2023/06/27 11:13:27;;;;;;;5.82;0.47;;;23.40;85.40;;;;;;4996138;28;20390;-65
2023/06/27 11:15:54;;;;;;;6.40;0.45;;;23.10;86.10;;;;;;5013122;28;20482;-66
2023/06/27 11:18:20;;;;;;;;;;;23.20;85.80;;;;;;5013538;28;20486;-65
2023/06/27 11:20:48;;;;;;;4.68;0.32;;;23.20;86.20;;;;;;4996551;28;20262;-65
2023/06/27 11:23:17;;;;;;;3.80;0.47;;;23.20;86.50;;;;;;5014072;28;20171;-66
2023/06/27 11:25:44;;;;;;;3.83;0.40;;;23.30;86.40;;;;;;5013331;28;20054;-65
2023/06/27 11:28:11;;;;;;;7.05;0.47;;;23.50;86.50;;;;;;4995926;28;20061;-65
2023/06/27 11:30:38;;;;;;;5.75;0.30;;;23.50;87.40;;;;;;4996418;28;20062;-66
2023/06/27 11:33:04;;;;;;;3.58;0.55;;;23.40;85.10;;;;;;5013406;28;20068;-66
2023/06/27 11:35:33;;;;;;;3.08;0.40;;;23.30;85.40;;;;;;5013259;28;20426;-66
2023/06/27 11:37:59;;;;;;;3.17;0.50;;;23.10;86.10;;;;;;4996868;28;20440;-66
2023/06/27 11:40:27;;;;;;;2.58;0.30;;;23.40;86.70;;;;;;4996155;28;20093;-65
2023/06/27 11:43:06;;;;;;;6.18;0.50;;;23.80;86.30;;;;;;5015959;28;20049;-66
2023/06/27 11:45:33;;;;;;;4.00;0.30;;;23.60;85.10;;;;;;5017118;28;20053;-65
2023/06/27 11:48:00;;;;;;;6.75;0.40;;;23.80;84.30;;;;;;4999384;28;20046;-65
2023/06/27 11:50:27;;;;;;;4.10;0.30;;;23.70;83.60;;;;;;5017081;28;20385;-65
2023/06/27 11:52:55;;;;;;;7.20;0.60;;;23.70;82.20;;;;;;4999497;28;20052;-65
2023/06/27 11:55:21;;;;;;;6.22;0.50;;;23.80;83.10;;;;;;4999411;28;20457;-67
2023/06/27 11:57:48;;;;;;;7.38;0.40;;;23.60;84.00;;;;;;5016685;28;20038;-67
2023/06/27 12:00:23;;;;;;;4.95;0.50;;;23.80;84.50;;;;;;4999165;28;20045;-66
2023/06/27 12:02:50;;;;;;;13.90;0.60;;;23.80;84.30;;;;;;4998890;28;20096;-66
2023/06/27 12:05:17;;;;;;;3.95;0.40;;;23.80;84.10;;;;;;4999965;28;20056;-64
2023/06/27 12:08:05;;;;;;;4.53;0.40;;;23.90;84.60;;;;;;4999305;28;20196;-68
2023/06/27 12:10:33;;;;;;;3.90;0.40;;;24.10;85.00;;;;;;4999790;28;20058;-66
2023/06/27 12:13:01;;;;;;;5.75;0.40;;;24.30;83.30;;;;;;4999046;28;20053;-65
2023/06/27 12:15:26;;;;;;;5.22;0.40;;;24.50;82.40;;;;;;4998995;28;20104;-66
2023/06/27 12:17:59;;;;;;;3.70;0.50;;;24.70;82.70;;;;;;5016855;28;20085;-65
2023/06/27 12:20:26;;;;;;;5.45;0.40;;;23.80;79.00;;;;;;5016237;28;20046;-66
2023/06/27 12:22:52;;;;;;;4.00;0.40;;;23.90;80.80;;;;;;5016770;28;20156;-67
2023/06/27 12:25:17;;;;;;;4.30;0.50;;;24.30;81.40;;;;;;4998337;28;20050;-66
2023/06/27 12:27:43;;;;;;;2.70;0.30;;;24.30;79.60;;;;;;4998397;28;20133;-66
2023/06/27 12:30:11;;;;;;;4.70;0.40;;;24.00;79.30;;;;;;5016150;28;20057;-66
2023/06/27 12:32:38;;;;;;;4.80;0.60;;;24.20;78.60;;;;;;4998118;28;20300;-66
2023/06/27 12:35:04;;;;;;;5.03;0.38;;;24.30;77.80;;;;;;5016575;28;20070;-66
2023/06/27 12:37:33;;;;;;;3.58;0.40;;;23.50;77.90;;;;;;5016194;28;20445;-68
2023/06/27 12:40:00;;;;;;;3.95;0.50;;;23.60;79.10;;;;;;5015878;28;20112;-66
2023/06/27 12:42:25;;;;;;;5.82;0.50;;;23.80;79.20;;;;;;4998431;28;20166;-66
2023/06/27 12:44:54;;;;;;;2.57;0.40;;;23.90;79.90;;;;;;4998336;28;20049;-65
2023/06/27 12:47:20;;;;;;;6.28;0.60;;;23.80;80.10;;;;;;4998385;28;20398;-66